KTXK/TXK METAR and TAF weather

Enter ICAO airport designator
Station Type Date Time Source
KTXK METAR 2022/11/30 15:53 UTC NOAA

KTXK 301553Z 03007KT 10SM CLR 08/M06 A3041 RMK AO2 SLP294 T00831056


Station Type Date Time Source
KTXK Decoded METAR 2022/11/30 15:53 UTC NOAA

TEXARKANA RGNL WEBB FIELD, AR, United States (KTXK) 33-27N 093-59W 111M
Nov 30, 2022 - 10:53 AM EST / 2022.11.30 1553 UTC
Wind: from the NNE (030 degrees) at 8 MPH (7 KT):0
Visibility: 10 mile(s):0
Sky conditions: clear
Temperature: 46.9 F (8.3 C)
Dew Point: 21.9 F (-5.6 C)
Relative Humidity: 36%
Pressure (altimeter): 30.41 in. Hg (1029 hPa)
ob: KTXK 301553Z 03007KT 10SM CLR 08/M06 A3041 RMK AO2 SLP294 T00831056
cycle: 16

Station Type Date Time Source
KTXK TAF 2022/11/30 12:22 UTC NOAA

TAF KTXK 301120Z 3012/0112 34006KT P6SM SKC
FM010000 05003KT P6SM SKC
FM010600 07004KT P6SM FEW250

Example: see airport list